Alma, West Virginia
Current Conditions -  °F | °C
As of 10:53 AM on Monday 24 Nov 2014 (Local Time) from KPKB Reporting Station
Broken Clouds Broken Clouds  
Wind Chill: 69°   Ceiling: 8000
Heat Index: 69°   Visibility: 10mi
Dew Point: 45°   Wind: 17mph
Humidity: 42%   Direction: 200°SSW
Pressure: 29.48"   Gusts: 38mph
Location:  39.43°N, 80.84°W
Report Text: KPKB 241553Z 20015G33KT 10SM SCT065 BKN080 21/07 A2948 RMK AO2 PK WND 20038/1533 SLP976 T02060072
Loading
Personal Weather Stations






























Interactive Weather Map New forecast layout! Learn more

10-Day Weather Forecast

Advertisements
Track Severe Weather on mobile